sensor_id;sensor_type;location;lat;lon;timestamp;temperature;humidity
70079;DHT22;57451;52.496;13.456;2023-08-08T00:00:18;14.80;63.10
70079;DHT22;57451;52.496;13.456;2023-08-08T00:02:46;14.80;63.30
70079;DHT22;57451;52.496;13.456;2023-08-08T00:05:13;14.70;63.50
70079;DHT22;57451;52.496;13.456;2023-08-08T00:07:42;14.70;63.80
70079;DHT22;57451;52.496;13.456;2023-08-08T00:10:09;14.70;63.90
70079;DHT22;57451;52.496;13.456;2023-08-08T00:12:37;14.70;64.00
70079;DHT22;57451;52.496;13.456;2023-08-08T00:15:05;14.70;64.20
70079;DHT22;57451;52.496;13.456;2023-08-08T00:17:33;14.70;64.20
70079;DHT22;57451;52.496;13.456;2023-08-08T00:20:01;14.70;64.20
70079;DHT22;57451;52.496;13.456;2023-08-08T00:22:29;14.60;64.50
70079;DHT22;57451;52.496;13.456;2023-08-08T00:24:57;14.60;64.90
70079;DHT22;57451;52.496;13.456;2023-08-08T00:27:25;14.50;65.00
70079;DHT22;57451;52.496;13.456;2023-08-08T00:29:52;14.60;64.90
70079;DHT22;57451;52.496;13.456;2023-08-08T00:32:21;14.60;64.90
70079;DHT22;57451;52.496;13.456;2023-08-08T00:34:48;14.60;65.00
70079;DHT22;57451;52.496;13.456;2023-08-08T00:37:15;14.50;64.90
70079;DHT22;57451;52.496;13.456;2023-08-08T00:39:43;14.50;65.10
70079;DHT22;57451;52.496;13.456;2023-08-08T00:42:14;14.40;65.20
70079;DHT22;57451;52.496;13.456;2023-08-08T00:44:41;14.40;65.30
70079;DHT22;57451;52.496;13.456;2023-08-08T00:47:09;14.40;65.40
70079;DHT22;57451;52.496;13.456;2023-08-08T00:49:37;14.40;65.30
70079;DHT22;57451;52.496;13.456;2023-08-08T00:52:06;14.40;65.20
70079;DHT22;57451;52.496;13.456;2023-08-08T00:54:33;14.40;65.20
70079;DHT22;57451;52.496;13.456;2023-08-08T00:57:02;14.40;65.30
70079;DHT22;57451;52.496;13.456;2023-08-08T00:59:31;14.40;65.20
70079;DHT22;57451;52.496;13.456;2023-08-08T01:02:00;14.30;65.20
70079;DHT22;57451;52.496;13.456;2023-08-08T01:04:28;14.30;65.30
70079;DHT22;57451;52.496;13.456;2023-08-08T01:07:04;14.30;65.20
70079;DHT22;57451;52.496;13.456;2023-08-08T01:09:38;14.20;65.20
70079;DHT22;57451;52.496;13.456;2023-08-08T01:12:11;14.20;65.20
70079;DHT22;57451;52.496;13.456;2023-08-08T01:14:42;14.10;65.40
70079;DHT22;57451;52.496;13.456;2023-08-08T01:17:10;14.10;65.50
70079;DHT22;57451;52.496;13.456;2023-08-08T01:19:39;14.10;65.40
70079;DHT22;57451;52.496;13.456;2023-08-08T01:22:11;14.10;65.30
70079;DHT22;57451;52.496;13.456;2023-08-08T01:24:43;14.00;65.30
70079;DHT22;57451;52.496;13.456;2023-08-08T01:27:11;14.10;65.40
70079;DHT22;57451;52.496;13.456;2023-08-08T01:29:39;14.00;65.20
70079;DHT22;57451;52.496;13.456;2023-08-08T01:32:08;14.00;65.30
70079;DHT22;57451;52.496;13.456;2023-08-08T01:34:38;14.00;65.30
70079;DHT22;57451;52.496;13.456;2023-08-08T01:37:09;14.00;65.20
70079;DHT22;57451;52.496;13.456;2023-08-08T01:39:38;14.00;65.10
70079;DHT22;57451;52.496;13.456;2023-08-08T01:42:09;14.00;65.10
70079;DHT22;57451;52.496;13.456;2023-08-08T01:44:41;13.90;64.90
70079;DHT22;57451;52.496;13.456;2023-08-08T01:47:08;13.90;65.00
70079;DHT22;57451;52.496;13.456;2023-08-08T01:49:36;13.90;64.90
70079;DHT22;57451;52.496;13.456;2023-08-08T01:52:04;13.90;64.80
70079;DHT22;57451;52.496;13.456;2023-08-08T01:54:32;13.80;64.90
70079;DHT22;57451;52.496;13.456;2023-08-08T01:57:00;13.80;64.70
70079;DHT22;57451;52.496;13.456;2023-08-08T01:59:28;13.80;64.90
70079;DHT22;57451;52.496;13.456;2023-08-08T02:01:56;13.70;64.80
70079;DHT22;57451;52.496;13.456;2023-08-08T02:04:24;13.70;64.90
70079;DHT22;57451;52.496;13.456;2023-08-08T02:06:51;13.70;65.10
70079;DHT22;57451;52.496;13.456;2023-08-08T02:09:19;13.70;65.10
70079;DHT22;57451;52.496;13.456;2023-08-08T02:11:48;13.70;64.90
70079;DHT22;57451;52.496;13.456;2023-08-08T02:14:15;13.70;64.70
70079;DHT22;57451;52.496;13.456;2023-08-08T02:16:44;13.60;64.70
70079;DHT22;57451;52.496;13.456;2023-08-08T02:19:11;13.60;64.80
70079;DHT22;57451;52.496;13.456;2023-08-08T02:21:38;13.70;64.70
70079;DHT22;57451;52.496;13.456;2023-08-08T02:24:06;13.60;64.60
70079;DHT22;57451;52.496;13.456;2023-08-08T02:26:33;13.70;64.50
70079;DHT22;57451;52.496;13.456;2023-08-08T02:29:01;13.60;64.60
70079;DHT22;57451;52.496;13.456;2023-08-08T02:31:28;13.60;64.80
70079;DHT22;57451;52.496;13.456;2023-08-08T02:33:57;13.60;65.00
70079;DHT22;57451;52.496;13.456;2023-08-08T02:36:25;13.60;65.10
70079;DHT22;57451;52.496;13.456;2023-08-08T02:38:52;13.60;65.20
70079;DHT22;57451;52.496;13.456;2023-08-08T02:41:21;13.60;65.40
70079;DHT22;57451;52.496;13.456;2023-08-08T02:43:49;13.50;65.60
70079;DHT22;57451;52.496;13.456;2023-08-08T02:46:16;13.60;65.80
70079;DHT22;57451;52.496;13.456;2023-08-08T02:48:44;13.60;65.70
70079;DHT22;57451;52.496;13.456;2023-08-08T02:51:13;13.60;66.10
70079;DHT22;57451;52.496;13.456;2023-08-08T02:53:40;13.50;66.40
70079;DHT22;57451;52.496;13.456;2023-08-08T02:56:07;13.50;66.40
70079;DHT22;57451;52.496;13.456;2023-08-08T02:58:39;13.60;66.40
70079;DHT22;57451;52.496;13.456;2023-08-08T03:01:07;13.60;66.40
70079;DHT22;57451;52.496;13.456;2023-08-08T03:03:36;13.50;66.80
70079;DHT22;57451;52.496;13.456;2023-08-08T03:06:03;13.50;67.00
70079;DHT22;57451;52.496;13.456;2023-08-08T03:08:32;13.50;67.20
70079;DHT22;57451;52.496;13.456;2023-08-08T03:11:00;13.50;67.00
70079;DHT22;57451;52.496;13.456;2023-08-08T03:13:28;13.50;67.40
70079;DHT22;57451;52.496;13.456;2023-08-08T03:15:56;13.50;67.30
70079;DHT22;57451;52.496;13.456;2023-08-08T03:18:24;13.50;67.40
70079;DHT22;57451;52.496;13.456;2023-08-08T03:20:53;13.50;67.40
70079;DHT22;57451;52.496;13.456;2023-08-08T03:23:21;13.50;67.80
70079;DHT22;57451;52.496;13.456;2023-08-08T03:25:52;13.50;67.70
70079;DHT22;57451;52.496;13.456;2023-08-08T03:28:20;13.50;67.60
70079;DHT22;57451;52.496;13.456;2023-08-08T03:30:48;13.40;68.00
70079;DHT22;57451;52.496;13.456;2023-08-08T03:33:15;13.40;67.80
70079;DHT22;57451;52.496;13.456;2023-08-08T03:35:42;13.50;67.80
70079;DHT22;57451;52.496;13.456;2023-08-08T03:38:13;13.50;68.00
70079;DHT22;57451;52.496;13.456;2023-08-08T03:40:41;13.50;68.00
70079;DHT22;57451;52.496;13.456;2023-08-08T03:43:10;13.40;68.40
70079;DHT22;57451;52.496;13.456;2023-08-08T03:45:37;13.40;68.30
70079;DHT22;57451;52.496;13.456;2023-08-08T03:48:05;13.40;68.20
70079;DHT22;57451;52.496;13.456;2023-08-08T03:50:33;13.40;68.20
70079;DHT22;57451;52.496;13.456;2023-08-08T03:53:01;13.40;68.70
70079;DHT22;57451;52.496;13.456;2023-08-08T03:55:28;13.30;69.10
70079;DHT22;57451;52.496;13.456;2023-08-08T03:57:56;13.30;69.30
70079;DHT22;57451;52.496;13.456;2023-08-08T04:00:25;13.30;69.30
70079;DHT22;57451;52.496;13.456;2023-08-08T04:02:52;13.40;69.20
70079;DHT22;57451;52.496;13.456;2023-08-08T04:05:20;13.40;69.20
70079;DHT22;57451;52.496;13.456;2023-08-08T04:07:48;13.40;69.20
70079;DHT22;57451;52.496;13.456;2023-08-08T04:10:15;13.40;69.10
70079;DHT22;57451;52.496;13.456;2023-08-08T04:12:43;13.40;69.30
70079;DHT22;57451;52.496;13.456;2023-08-08T04:15:10;13.40;69.40
70079;DHT22;57451;52.496;13.456;2023-08-08T04:17:39;13.40;69.60
70079;DHT22;57451;52.496;13.456;2023-08-08T04:20:07;13.40;69.80
70079;DHT22;57451;52.496;13.456;2023-08-08T04:22:35;13.40;69.80
70079;DHT22;57451;52.496;13.456;2023-08-08T04:25:04;13.50;69.70
70079;DHT22;57451;52.496;13.456;2023-08-08T04:27:32;13.60;69.50
70079;DHT22;57451;52.496;13.456;2023-08-08T04:29:59;13.50;69.60
70079;DHT22;57451;52.496;13.456;2023-08-08T04:32:26;13.50;69.60
70079;DHT22;57451;52.496;13.456;2023-08-08T04:34:55;13.60;69.60
70079;DHT22;57451;52.496;13.456;2023-08-08T04:37:23;13.60;69.40
70079;DHT22;57451;52.496;13.456;2023-08-08T04:39:50;13.70;69.30
70079;DHT22;57451;52.496;13.456;2023-08-08T04:42:17;13.70;69.30
70079;DHT22;57451;52.496;13.456;2023-08-08T04:44:45;13.70;69.20
70079;DHT22;57451;52.496;13.456;2023-08-08T04:47:12;13.70;69.30
70079;DHT22;57451;52.496;13.456;2023-08-08T04:49:40;13.80;69.30
70079;DHT22;57451;52.496;13.456;2023-08-08T04:52:08;13.70;69.30
70079;DHT22;57451;52.496;13.456;2023-08-08T04:54:36;13.70;69.50
70079;DHT22;57451;52.496;13.456;2023-08-08T04:57:03;13.70;69.50
70079;DHT22;57451;52.496;13.456;2023-08-08T04:59:31;13.80;69.50
70079;DHT22;57451;52.496;13.456;2023-08-08T05:01:58;13.80;69.80
70079;DHT22;57451;52.496;13.456;2023-08-08T05:04:26;13.80;69.50
70079;DHT22;57451;52.496;13.456;2023-08-08T05:06:53;13.80;69.20
70079;DHT22;57451;52.496;13.456;2023-08-08T05:09:22;13.80;69.60
70079;DHT22;57451;52.496;13.456;2023-08-08T05:11:53;13.80;69.50
70079;DHT22;57451;52.496;13.456;2023-08-08T05:14:21;13.80;69.50
70079;DHT22;57451;52.496;13.456;2023-08-08T05:16:48;13.90;69.50
70079;DHT22;57451;52.496;13.456;2023-08-08T05:19:15;13.90;69.40
70079;DHT22;57451;52.496;13.456;2023-08-08T05:21:43;13.90;69.40
70079;DHT22;57451;52.496;13.456;2023-08-08T05:24:10;13.90;69.50
70079;DHT22;57451;52.496;13.456;2023-08-08T05:26:39;13.90;69.50
70079;DHT22;57451;52.496;13.456;2023-08-08T05:29:06;13.90;69.40
70079;DHT22;57451;52.496;13.456;2023-08-08T05:31:34;14.00;69.60
70079;DHT22;57451;52.496;13.456;2023-08-08T05:34:01;14.00;69.30
70079;DHT22;57451;52.496;13.456;2023-08-08T05:36:29;14.00;69.40
70079;DHT22;57451;52.496;13.456;2023-08-08T05:38:56;14.10;69.30
70079;DHT22;57451;52.496;13.456;2023-08-08T05:41:23;14.20;69.00
70079;DHT22;57451;52.496;13.456;2023-08-08T05:43:52;14.20;69.20
70079;DHT22;57451;52.496;13.456;2023-08-08T05:46:19;14.30;69.20
70079;DHT22;57451;52.496;13.456;2023-08-08T05:48:47;14.30;69.30
70079;DHT22;57451;52.496;13.456;2023-08-08T05:51:14;14.40;69.30
70079;DHT22;57451;52.496;13.456;2023-08-08T05:53:42;14.40;69.30
70079;DHT22;57451;52.496;13.456;2023-08-08T05:56:09;14.50;69.50
70079;DHT22;57451;52.496;13.456;2023-08-08T05:58:37;14.60;69.20
70079;DHT22;57451;52.496;13.456;2023-08-08T06:01:06;14.60;68.90
70079;DHT22;57451;52.496;13.456;2023-08-08T06:03:36;14.70;68.70
70079;DHT22;57451;52.496;13.456;2023-08-08T06:06:05;14.70;68.40
70079;DHT22;57451;52.496;13.456;2023-08-08T06:08:33;14.80;68.60
70079;DHT22;57451;52.496;13.456;2023-08-08T06:11:01;14.80;68.30
70079;DHT22;57451;52.496;13.456;2023-08-08T06:13:28;14.80;68.50
70079;DHT22;57451;52.496;13.456;2023-08-08T06:15:56;14.90;68.40
70079;DHT22;57451;52.496;13.456;2023-08-08T06:18:25;14.90;68.70
70079;DHT22;57451;52.496;13.456;2023-08-08T06:20:52;15.00;68.20
70079;DHT22;57451;52.496;13.456;2023-08-08T06:23:19;15.00;67.80
70079;DHT22;57451;52.496;13.456;2023-08-08T06:25:47;15.00;68.20
70079;DHT22;57451;52.496;13.456;2023-08-08T06:28:14;15.00;67.80
70079;DHT22;57451;52.496;13.456;2023-08-08T06:30:41;15.00;68.10
70079;DHT22;57451;52.496;13.456;2023-08-08T06:33:09;15.10;68.20
70079;DHT22;57451;52.496;13.456;2023-08-08T06:35:39;15.10;68.00
70079;DHT22;57451;52.496;13.456;2023-08-08T06:38:06;15.20;68.20
70079;DHT22;57451;52.496;13.456;2023-08-08T06:40:33;15.20;67.80
70079;DHT22;57451;52.496;13.456;2023-08-08T06:43:01;15.30;67.70
70079;DHT22;57451;52.496;13.456;2023-08-08T06:45:28;15.40;67.50
70079;DHT22;57451;52.496;13.456;2023-08-08T06:47:56;15.30;67.70
70079;DHT22;57451;52.496;13.456;2023-08-08T06:50:24;15.40;67.80
70079;DHT22;57451;52.496;13.456;2023-08-08T06:52:53;15.40;67.60
70079;DHT22;57451;52.496;13.456;2023-08-08T06:55:20;15.40;67.60
70079;DHT22;57451;52.496;13.456;2023-08-08T06:57:47;15.40;67.50
70079;DHT22;57451;52.496;13.456;2023-08-08T07:00:15;15.40;67.40
70079;DHT22;57451;52.496;13.456;2023-08-08T07:02:43;15.50;67.40
70079;DHT22;57451;52.496;13.456;2023-08-08T07:05:11;15.50;67.50
70079;DHT22;57451;52.496;13.456;2023-08-08T07:07:38;15.50;67.20
70079;DHT22;57451;52.496;13.456;2023-08-08T07:10:08;15.50;67.40
70079;DHT22;57451;52.496;13.456;2023-08-08T07:12:36;15.60;67.40
70079;DHT22;57451;52.496;13.456;2023-08-08T07:15:06;15.60;67.20
70079;DHT22;57451;52.496;13.456;2023-08-08T07:17:34;15.60;66.90
70079;DHT22;57451;52.496;13.456;2023-08-08T07:20:02;15.70;66.60
70079;DHT22;57451;52.496;13.456;2023-08-08T07:22:29;15.70;66.30
70079;DHT22;57451;52.496;13.456;2023-08-08T07:24:57;15.70;66.40
70079;DHT22;57451;52.496;13.456;2023-08-08T07:27:26;15.70;66.60
70079;DHT22;57451;52.496;13.456;2023-08-08T07:29:54;15.90;67.00
70079;DHT22;57451;52.496;13.456;2023-08-08T07:32:21;15.90;66.20
70079;DHT22;57451;52.496;13.456;2023-08-08T07:34:48;15.90;66.10
70079;DHT22;57451;52.496;13.456;2023-08-08T07:37:16;16.00;66.10
70079;DHT22;57451;52.496;13.456;2023-08-08T07:39:43;16.10;66.20
70079;DHT22;57451;52.496;13.456;2023-08-08T07:42:10;16.20;65.20
70079;DHT22;57451;52.496;13.456;2023-08-08T07:44:39;16.20;65.40
70079;DHT22;57451;52.496;13.456;2023-08-08T07:47:06;16.30;64.90
70079;DHT22;57451;52.496;13.456;2023-08-08T07:49:37;16.30;64.80
70079;DHT22;57451;52.496;13.456;2023-08-08T07:52:05;16.40;64.50
70079;DHT22;57451;52.496;13.456;2023-08-08T07:54:34;16.40;64.40
70079;DHT22;57451;52.496;13.456;2023-08-08T07:57:01;16.40;64.10
70079;DHT22;57451;52.496;13.456;2023-08-08T07:59:29;16.40;64.40
70079;DHT22;57451;52.496;13.456;2023-08-08T08:01:57;16.40;64.20
70079;DHT22;57451;52.496;13.456;2023-08-08T08:04:25;16.50;64.40
70079;DHT22;57451;52.496;13.456;2023-08-08T08:06:52;16.50;63.80
70079;DHT22;57451;52.496;13.456;2023-08-08T08:09:19;16.50;63.90
70079;DHT22;57451;52.496;13.456;2023-08-08T08:11:47;16.50;64.10
70079;DHT22;57451;52.496;13.456;2023-08-08T08:14:14;16.60;64.00
70079;DHT22;57451;52.496;13.456;2023-08-08T08:16:42;16.60;64.40
70079;DHT22;57451;52.496;13.456;2023-08-08T08:19:10;16.70;63.90
70079;DHT22;57451;52.496;13.456;2023-08-08T08:21:38;16.70;63.70
70079;DHT22;57451;52.496;13.456;2023-08-08T08:24:06;16.70;63.40
70079;DHT22;57451;52.496;13.456;2023-08-08T08:26:33;16.80;63.30
70079;DHT22;57451;52.496;13.456;2023-08-08T08:29:01;16.90;64.10
70079;DHT22;57451;52.496;13.456;2023-08-08T08:31:28;17.00;63.90
70079;DHT22;57451;52.496;13.456;2023-08-08T08:33:55;17.00;63.00
70079;DHT22;57451;52.496;13.456;2023-08-08T08:36:24;17.10;62.60
70079;DHT22;57451;52.496;13.456;2023-08-08T08:38:53;17.10;61.90
70079;DHT22;57451;52.496;13.456;2023-08-08T08:41:25;17.20;62.10
70079;DHT22;57451;52.496;13.456;2023-08-08T08:43:53;17.30;61.80
70079;DHT22;57451;52.496;13.456;2023-08-08T08:46:22;17.40;62.00
70079;DHT22;57451;52.496;13.456;2023-08-08T08:48:49;17.40;61.10
70079;DHT22;57451;52.496;13.456;2023-08-08T08:51:18;17.50;60.60
70079;DHT22;57451;52.496;13.456;2023-08-08T08:53:47;17.50;61.10
70079;DHT22;57451;52.496;13.456;2023-08-08T08:56:14;17.50;60.50
70079;DHT22;57451;52.496;13.456;2023-08-08T08:58:41;17.60;60.20
70079;DHT22;57451;52.496;13.456;2023-08-08T09:01:09;17.60;60.70
70079;DHT22;57451;52.496;13.456;2023-08-08T09:03:37;17.60;60.70
70079;DHT22;57451;52.496;13.456;2023-08-08T09:06:04;17.70;60.90
70079;DHT22;57451;52.496;13.456;2023-08-08T09:08:32;17.70;60.60
70079;DHT22;57451;52.496;13.456;2023-08-08T09:11:01;17.70;60.30
70079;DHT22;57451;52.496;13.456;2023-08-08T09:13:35;17.80;59.70
70079;DHT22;57451;52.496;13.456;2023-08-08T09:16:04;17.80;60.30
70079;DHT22;57451;52.496;13.456;2023-08-08T09:18:32;17.90;59.30
70079;DHT22;57451;52.496;13.456;2023-08-08T09:21:00;17.90;60.40
70079;DHT22;57451;52.496;13.456;2023-08-08T09:23:27;18.00;60.50
70079;DHT22;57451;52.496;13.456;2023-08-08T09:25:55;18.00;59.90
70079;DHT22;57451;52.496;13.456;2023-08-08T09:28:23;18.10;59.30
70079;DHT22;57451;52.496;13.456;2023-08-08T09:30:51;18.10;59.30
70079;DHT22;57451;52.496;13.456;2023-08-08T09:33:18;18.20;58.80
70079;DHT22;57451;52.496;13.456;2023-08-08T09:35:46;18.30;59.80
70079;DHT22;57451;52.496;13.456;2023-08-08T09:38:13;18.40;58.30
70079;DHT22;57451;52.496;13.456;2023-08-08T09:40:40;18.40;58.10
70079;DHT22;57451;52.496;13.456;2023-08-08T09:43:08;18.60;58.30
70079;DHT22;57451;52.496;13.456;2023-08-08T09:45:38;18.70;56.60
70079;DHT22;57451;52.496;13.456;2023-08-08T09:48:06;18.70;57.40
70079;DHT22;57451;52.496;13.456;2023-08-08T09:50:34;18.70;57.30
70079;DHT22;57451;52.496;13.456;2023-08-08T09:53:02;18.80;57.20
70079;DHT22;57451;52.496;13.456;2023-08-08T09:55:33;19.00;56.70
70079;DHT22;57451;52.496;13.456;2023-08-08T09:58:02;19.00;55.50
70079;DHT22;57451;52.496;13.456;2023-08-08T10:00:30;19.00;55.40
70079;DHT22;57451;52.496;13.456;2023-08-08T10:03:02;19.10;55.90
70079;DHT22;57451;52.496;13.456;2023-08-08T10:05:30;19.00;55.00
70079;DHT22;57451;52.496;13.456;2023-08-08T10:07:58;19.00;55.90
70079;DHT22;57451;52.496;13.456;2023-08-08T10:10:25;19.00;55.10
70079;DHT22;57451;52.496;13.456;2023-08-08T10:12:53;18.90;57.40
70079;DHT22;57451;52.496;13.456;2023-08-08T10:15:25;18.80;57.90
70079;DHT22;57451;52.496;13.456;2023-08-08T10:17:57;18.90;59.00
70079;DHT22;57451;52.496;13.456;2023-08-08T10:20:26;18.90;58.10
70079;DHT22;57451;52.496;13.456;2023-08-08T10:22:54;18.80;58.30
70079;DHT22;57451;52.496;13.456;2023-08-08T10:25:27;18.70;58.50
70079;DHT22;57451;52.496;13.456;2023-08-08T10:28:05;18.70;59.00
70079;DHT22;57451;52.496;13.456;2023-08-08T10:30:53;18.80;57.60
70079;DHT22;57451;52.496;13.456;2023-08-08T10:33:22;18.70;58.40
70079;DHT22;57451;52.496;13.456;2023-08-08T10:36:00;18.80;59.40
70079;DHT22;57451;52.496;13.456;2023-08-08T10:38:39;18.90;59.40
70079;DHT22;57451;52.496;13.456;2023-08-08T10:41:09;18.90;58.50
70079;DHT22;57451;52.496;13.456;2023-08-08T10:43:37;19.00;58.10
70079;DHT22;57451;52.496;13.456;2023-08-08T10:46:05;19.10;58.90
70079;DHT22;57451;52.496;13.456;2023-08-08T10:48:50;19.30;55.20
70079;DHT22;57451;52.496;13.456;2023-08-08T10:51:19;19.30;55.10
70079;DHT22;57451;52.496;13.456;2023-08-08T10:53:51;19.30;54.50
70079;DHT22;57451;52.496;13.456;2023-08-08T10:56:18;19.30;53.10
70079;DHT22;57451;52.496;13.456;2023-08-08T10:58:48;19.30;53.90
70079;DHT22;57451;52.496;13.456;2023-08-08T11:01:15;19.30;55.80
70079;DHT22;57451;52.496;13.456;2023-08-08T11:03:45;19.20;55.60
70079;DHT22;57451;52.496;13.456;2023-08-08T11:06:15;19.20;56.80
70079;DHT22;57451;52.496;13.456;2023-08-08T11:08:44;19.20;57.10
70079;DHT22;57451;52.496;13.456;2023-08-08T11:11:12;19.20;56.90
70079;DHT22;57451;52.496;13.456;2023-08-08T11:13:39;19.20;55.70
70079;DHT22;57451;52.496;13.456;2023-08-08T11:16:07;19.40;56.40
70079;DHT22;57451;52.496;13.456;2023-08-08T11:18:35;19.40;57.50
70079;DHT22;57451;52.496;13.456;2023-08-08T11:21:09;19.50;56.60
70079;DHT22;57451;52.496;13.456;2023-08-08T11:23:47;19.60;54.40
70079;DHT22;57451;52.496;13.456;2023-08-08T11:26:17;19.60;55.40
70079;DHT22;57451;52.496;13.456;2023-08-08T11:28:49;19.70;54.50
70079;DHT22;57451;52.496;13.456;2023-08-08T11:31:18;19.80;54.20
70079;DHT22;57451;52.496;13.456;2023-08-08T11:33:46;19.80;54.70
70079;DHT22;57451;52.496;13.456;2023-08-08T11:36:14;19.70;55.70
70079;DHT22;57451;52.496;13.456;2023-08-08T11:38:42;19.50;55.50
70079;DHT22;57451;52.496;13.456;2023-08-08T11:41:13;19.30;54.20
70079;DHT22;57451;52.496;13.456;2023-08-08T11:43:41;19.10;55.80
70079;DHT22;57451;52.496;13.456;2023-08-08T11:46:09;19.10;55.60
70079;DHT22;57451;52.496;13.456;2023-08-08T11:48:37;19.10;55.10
70079;DHT22;57451;52.496;13.456;2023-08-08T11:51:05;19.00;55.00
70079;DHT22;57451;52.496;13.456;2023-08-08T11:53:32;18.90;55.80
70079;DHT22;57451;52.496;13.456;2023-08-08T11:56:00;18.80;56.50
70079;DHT22;57451;52.496;13.456;2023-08-08T11:58:30;18.80;57.00
70079;DHT22;57451;52.496;13.456;2023-08-08T12:00:58;18.90;57.30
70079;DHT22;57451;52.496;13.456;2023-08-08T12:03:25;18.90;56.90
70079;DHT22;57451;52.496;13.456;2023-08-08T12:05:53;19.00;57.40
70079;DHT22;57451;52.496;13.456;2023-08-08T12:08:21;19.10;57.60
70079;DHT22;57451;52.496;13.456;2023-08-08T12:10:49;19.10;58.40
70079;DHT22;57451;52.496;13.456;2023-08-08T12:13:21;19.30;58.00
70079;DHT22;57451;52.496;13.456;2023-08-08T12:15:50;19.40;58.30
70079;DHT22;57451;52.496;13.456;2023-08-08T12:18:19;19.50;56.30
70079;DHT22;57451;52.496;13.456;2023-08-08T12:20:46;19.70;57.80
70079;DHT22;57451;52.496;13.456;2023-08-08T12:23:14;19.80;57.30
70079;DHT22;57451;52.496;13.456;2023-08-08T12:25:42;20.00;56.20
70079;DHT22;57451;52.496;13.456;2023-08-08T12:28:10;20.20;56.50
70079;DHT22;57451;52.496;13.456;2023-08-08T12:30:37;20.40;55.80
70079;DHT22;57451;52.496;13.456;2023-08-08T12:33:06;20.60;54.70
70079;DHT22;57451;52.496;13.456;2023-08-08T12:35:33;20.70;55.00
70079;DHT22;57451;52.496;13.456;2023-08-08T12:38:00;20.90;53.70
70079;DHT22;57451;52.496;13.456;2023-08-08T12:40:28;21.10;53.40
70079;DHT22;57451;52.496;13.456;2023-08-08T12:42:55;21.10;51.20
70079;DHT22;57451;52.496;13.456;2023-08-08T12:45:23;20.90;52.40
70079;DHT22;57451;52.496;13.456;2023-08-08T12:47:50;20.80;53.70
70079;DHT22;57451;52.496;13.456;2023-08-08T12:50:19;20.80;54.40
70079;DHT22;57451;52.496;13.456;2023-08-08T12:52:47;20.80;55.10
70079;DHT22;57451;52.496;13.456;2023-08-08T12:55:14;20.80;55.30
70079;DHT22;57451;52.496;13.456;2023-08-08T12:57:44;20.90;54.90
70079;DHT22;57451;52.496;13.456;2023-08-08T13:00:13;20.90;53.80
70079;DHT22;57451;52.496;13.456;2023-08-08T13:02:40;21.00;54.50
70079;DHT22;57451;52.496;13.456;2023-08-08T13:05:08;21.10;53.10
70079;DHT22;57451;52.496;13.456;2023-08-08T13:07:38;21.20;53.60
70079;DHT22;57451;52.496;13.456;2023-08-08T13:10:06;21.20;53.80
70079;DHT22;57451;52.496;13.456;2023-08-08T13:12:34;21.10;54.30
70079;DHT22;57451;52.496;13.456;2023-08-08T13:15:01;21.10;55.00
70079;DHT22;57451;52.496;13.456;2023-08-08T13:17:29;21.30;56.50
70079;DHT22;57451;52.496;13.456;2023-08-08T13:19:56;21.40;55.10
70079;DHT22;57451;52.496;13.456;2023-08-08T13:22:24;21.50;53.70
70079;DHT22;57451;52.496;13.456;2023-08-08T13:24:53;21.70;54.50
70079;DHT22;57451;52.496;13.456;2023-08-08T13:27:20;21.90;53.90
70079;DHT22;57451;52.496;13.456;2023-08-08T13:29:48;22.20;54.00
70079;DHT22;57451;52.496;13.456;2023-08-08T13:32:15;22.40;52.50
70079;DHT22;57451;52.496;13.456;2023-08-08T13:34:43;22.70;50.80
70079;DHT22;57451;52.496;13.456;2023-08-08T13:37:10;23.00;50.80
70079;DHT22;57451;52.496;13.456;2023-08-08T13:39:37;23.00;49.80
70079;DHT22;57451;52.496;13.456;2023-08-08T13:42:07;23.20;48.30
70079;DHT22;57451;52.496;13.456;2023-08-08T13:44:34;23.30;48.00
70079;DHT22;57451;52.496;13.456;2023-08-08T13:47:02;23.20;47.10
70079;DHT22;57451;52.496;13.456;2023-08-08T13:49:29;22.70;48.90
70079;DHT22;57451;52.496;13.456;2023-08-08T13:51:57;22.30;51.60
70079;DHT22;57451;52.496;13.456;2023-08-08T13:54:24;21.90;52.80
70079;DHT22;57451;52.496;13.456;2023-08-08T13:56:51;21.60;53.30
70079;DHT22;57451;52.496;13.456;2023-08-08T13:59:20;21.60;54.20
70079;DHT22;57451;52.496;13.456;2023-08-08T14:01:47;21.40;54.20
70079;DHT22;57451;52.496;13.456;2023-08-08T14:04:15;21.30;54.60
70079;DHT22;57451;52.496;13.456;2023-08-08T14:06:42;21.10;54.40
70079;DHT22;57451;52.496;13.456;2023-08-08T14:09:10;21.00;55.20
70079;DHT22;57451;52.496;13.456;2023-08-08T14:11:37;20.90;54.50
70079;DHT22;57451;52.496;13.456;2023-08-08T14:14:04;20.80;56.20
70079;DHT22;57451;52.496;13.456;2023-08-08T14:16:33;20.70;55.10
70079;DHT22;57451;52.496;13.456;2023-08-08T14:19:00;20.70;54.90
70079;DHT22;57451;52.496;13.456;2023-08-08T14:21:28;20.80;55.80
70079;DHT22;57451;52.496;13.456;2023-08-08T14:23:55;20.90;54.80
70079;DHT22;57451;52.496;13.456;2023-08-08T14:26:23;21.10;53.50
70079;DHT22;57451;52.496;13.456;2023-08-08T14:28:50;21.30;53.30
70079;DHT22;57451;52.496;13.456;2023-08-08T14:31:17;21.60;52.50
70079;DHT22;57451;52.496;13.456;2023-08-08T14:33:46;21.90;52.30
70079;DHT22;57451;52.496;13.456;2023-08-08T14:36:14;22.20;50.40
70079;DHT22;57451;52.496;13.456;2023-08-08T14:38:42;22.50;50.80
70079;DHT22;57451;52.496;13.456;2023-08-08T14:41:10;22.70;49.70
70079;DHT22;57451;52.496;13.456;2023-08-08T14:43:37;23.00;51.00
70079;DHT22;57451;52.496;13.456;2023-08-08T14:46:06;23.30;48.90
70079;DHT22;57451;52.496;13.456;2023-08-08T14:48:33;23.60;48.20
70079;DHT22;57451;52.496;13.456;2023-08-08T14:51:03;23.90;47.60
70079;DHT22;57451;52.496;13.456;2023-08-08T14:53:31;23.80;46.60
70079;DHT22;57451;52.496;13.456;2023-08-08T14:55:59;24.00;46.40
70079;DHT22;57451;52.496;13.456;2023-08-08T14:58:27;24.30;47.00
70079;DHT22;57451;52.496;13.456;2023-08-08T15:00:54;24.20;45.70
70079;DHT22;57451;52.496;13.456;2023-08-08T15:03:22;24.20;45.30
70079;DHT22;57451;52.496;13.456;2023-08-08T15:05:50;24.40;45.60
70079;DHT22;57451;52.496;13.456;2023-08-08T15:08:19;24.50;45.40
70079;DHT22;57451;52.496;13.456;2023-08-08T15:10:48;24.70;45.40
70079;DHT22;57451;52.496;13.456;2023-08-08T15:13:16;24.60;45.30
70079;DHT22;57451;52.496;13.456;2023-08-08T15:15:44;24.60;45.10
70079;DHT22;57451;52.496;13.456;2023-08-08T15:18:12;24.60;45.50
70079;DHT22;57451;52.496;13.456;2023-08-08T15:20:40;24.60;46.30